createdAt,value
2019-02-11T00:03:36.128Z,0.40
2019-02-11T00:08:38.228Z,0.40
2019-02-11T00:13:40.354Z,0.33
2019-02-11T00:18:42.478Z,0.40
2019-02-11T00:23:44.545Z,0.40
2019-02-11T00:28:46.654Z,0.30
2019-02-11T00:33:50.890Z,0.33
2019-02-11T00:38:53.002Z,0.20
2019-02-11T00:43:55.133Z,0.30
2019-02-11T00:48:57.202Z,0.30
2019-02-11T00:54:01.814Z,0.20
2019-02-11T00:59:03.893Z,0.20
2019-02-11T01:04:06.025Z,0.30
2019-02-11T01:09:08.132Z,0.30
2019-02-11T01:14:10.208Z,0.50
2019-02-11T01:19:14.214Z,0.20
2019-02-11T01:24:16.298Z,0.20
2019-02-11T01:29:18.437Z,0.30
2019-02-11T01:34:20.501Z,0.30
2019-02-11T01:39:22.586Z,0.20
2019-02-11T01:44:24.704Z,0.40
2019-02-11T01:49:26.899Z,0.30
2019-02-11T01:54:28.932Z,0.20
2019-02-11T01:59:31.053Z,0.33
2019-02-11T02:04:33.097Z,0.30
2019-02-11T02:09:35.215Z,0.30
2019-02-11T02:14:37.315Z,0.30
2019-02-11T02:19:39.386Z,0.40
2019-02-11T02:24:41.510Z,0.30
2019-02-11T02:29:43.604Z,0.27
2019-02-11T02:34:45.712Z,0.37
2019-02-11T02:39:47.766Z,0.40
2019-02-11T02:44:49.896Z,0.40
2019-02-11T02:49:51.947Z,0.40
2019-02-11T02:54:54.162Z,0.50
2019-02-11T02:59:56.347Z,0.40
2019-02-11T03:04:58.649Z,0.67
2019-02-11T03:10:02.508Z,0.33
2019-02-11T03:15:05.098Z,0.53
2019-02-11T03:20:07.404Z,0.40
2019-02-11T03:25:09.475Z,0.60
2019-02-11T03:30:11.563Z,0.80
2019-02-11T03:35:13.611Z,0.73
2019-02-11T03:40:15.658Z,1.10
2019-02-11T03:45:17.755Z,0.60
2019-02-11T03:50:19.843Z,0.90
2019-02-11T03:55:21.928Z,0.80
2019-02-11T04:00:24.001Z,0.80
2019-02-11T04:05:26.196Z,0.87
2019-02-11T04:10:28.279Z,1.30
2019-02-11T04:15:30.369Z,1.37
2019-02-11T04:20:32.441Z,1.20
2019-02-11T04:25:34.536Z,1.03
2019-02-11T04:30:36.808Z,1.00
2019-02-11T04:35:38.923Z,1.40
2019-02-11T04:40:40.985Z,1.47
2019-02-11T04:45:44.723Z,1.27
2019-02-11T04:50:46.752Z,1.00
2019-02-11T04:55:48.957Z,1.37
2019-02-11T05:00:51.073Z,1.10
2019-02-11T05:05:53.123Z,1.00
2019-02-11T05:10:55.177Z,1.10
2019-02-11T05:15:57.326Z,1.20
2019-02-11T05:20:59.360Z,1.43
2019-02-11T05:26:01.422Z,1.50
2019-02-11T05:31:03.549Z,1.40
2019-02-11T05:36:05.722Z,1.40
2019-02-11T05:41:07.910Z,1.40
2019-02-11T05:46:10.024Z,1.70
2019-02-11T05:51:12.217Z,1.80
2019-02-11T05:56:14.274Z,2.43
2019-02-11T06:01:17.555Z,1.90
2019-02-11T06:06:19.639Z,1.67
2019-02-11T06:11:21.830Z,2.07
2019-02-11T06:16:23.929Z,1.80
2019-02-11T06:21:26.039Z,1.73
2019-02-11T06:26:29.173Z,2.13
2019-02-11T06:31:31.283Z,1.57
2019-02-11T06:36:33.354Z,2.70
2019-02-11T06:41:35.413Z,1.63
2019-02-11T06:46:37.560Z,2.30
2019-02-11T06:51:39.602Z,2.00
2019-02-11T06:56:41.660Z,1.90
2019-02-11T07:01:43.766Z,1.97
2019-02-11T07:06:45.881Z,1.70
2019-02-11T07:11:48.005Z,2.30
2019-02-11T07:16:50.096Z,1.87
2019-02-11T07:21:52.431Z,1.90
2019-02-11T07:26:54.522Z,2.07
2019-02-11T07:31:56.955Z,1.80
2019-02-11T07:36:59.079Z,1.20
2019-02-11T07:42:17.344Z,1.57
2019-02-11T07:47:19.433Z,1.40
2019-02-11T07:52:26.738Z,1.80
2019-02-11T07:57:25.616Z,1.80
2019-02-11T08:02:27.841Z,1.57
2019-02-11T08:07:29.902Z,1.60
2019-02-11T08:12:31.957Z,1.47
2019-02-11T08:17:34.068Z,1.30
2019-02-11T08:22:36.174Z,1.33
2019-02-11T08:27:38.307Z,1.83
2019-02-11T08:32:40.425Z,1.60
2019-02-11T08:37:44.307Z,1.43
2019-02-11T08:42:46.409Z,1.40
2019-02-11T08:47:48.495Z,1.40
2019-02-11T08:52:50.567Z,1.43
2019-02-11T08:57:52.641Z,1.30
2019-02-11T09:02:54.756Z,1.17
2019-02-11T09:07:57.151Z,1.30
2019-02-11T09:12:59.237Z,1.27
2019-02-11T09:18:01.417Z,1.30
2019-02-11T09:23:03.520Z,1.17
2019-02-11T09:28:05.546Z,1.40
2019-02-11T09:33:07.661Z,1.40
2019-02-11T09:38:09.739Z,1.20
2019-02-11T09:43:11.798Z,0.90
2019-02-11T09:48:13.884Z,1.30
2019-02-11T09:53:15.966Z,1.00
2019-02-11T09:58:18.027Z,1.30
2019-02-11T10:03:20.123Z,1.30
2019-02-11T10:08:22.210Z,1.10
2019-02-11T10:13:24.296Z,1.70
2019-02-11T10:18:26.357Z,1.33
2019-02-11T10:23:30.014Z,1.13
2019-02-11T10:28:32.094Z,1.60
2019-02-11T10:33:34.177Z,1.50
2019-02-11T10:38:36.830Z,1.60
2019-02-11T10:43:39.057Z,4.90
2019-02-11T10:48:41.136Z,4.83
2019-02-11T10:53:43.214Z,1.10
2019-02-11T10:58:45.265Z,1.47
2019-02-11T11:03:47.452Z,1.80
2019-02-11T11:08:49.565Z,1.20
2019-02-11T11:13:51.614Z,1.23
2019-02-11T11:18:53.695Z,1.13
2019-02-11T11:23:55.795Z,1.60
2019-02-11T11:28:57.845Z,1.10
2019-02-11T11:34:00.000Z,0.93
2019-02-11T11:39:03.802Z,2.17
2019-02-11T11:44:05.868Z,1.60
2019-02-11T11:49:07.963Z,1.67
2019-02-11T11:54:10.117Z,1.93
2019-02-11T11:59:12.241Z,2.00
2019-02-11T12:04:14.405Z,2.03
2019-02-11T12:09:18.939Z,2.80
2019-02-11T12:14:20.996Z,2.27
2019-02-11T12:19:23.151Z,2.23
2019-02-11T12:24:25.283Z,2.60
2019-02-11T12:29:27.642Z,2.37
2019-02-11T12:34:29.938Z,2.20
2019-02-11T12:39:31.985Z,2.70
2019-02-11T12:44:34.117Z,2.67
2019-02-11T12:49:36.238Z,2.53
2019-02-11T12:54:38.299Z,2.30
2019-02-11T12:59:40.452Z,3.10
2019-02-11T13:04:42.517Z,2.60
2019-02-11T13:09:46.655Z,2.80
2019-02-11T13:14:48.732Z,2.83
2019-02-11T13:20:06.771Z,3.03
2019-02-11T13:24:54.798Z,2.60
2019-02-11T13:29:56.905Z,3.07
2019-02-11T13:34:59.052Z,3.40
2019-02-11T13:40:01.131Z,4.80
2019-02-11T13:45:08.072Z,2.53
2019-02-11T13:50:12.660Z,2.27
2019-02-11T13:55:16.813Z,1.90
2019-02-11T14:00:35.644Z,2.87
2019-02-11T14:05:38.003Z,3.30
2019-02-11T14:10:40.480Z,2.90
2019-02-11T14:15:42.793Z,2.70
2019-02-11T14:20:49.617Z,7.53
2019-02-11T14:25:49.081Z,2.30
2019-02-11T14:30:51.178Z,2.70
2019-02-11T14:35:54.514Z,2.60
2019-02-11T14:40:56.751Z,1.77
2019-02-11T14:45:58.886Z,2.03
2019-02-11T14:51:00.982Z,2.53
2019-02-11T14:56:03.115Z,2.33
2019-02-11T15:01:05.575Z,2.37
2019-02-11T15:06:07.819Z,2.90
2019-02-11T15:11:10.071Z,1.70
2019-02-11T15:16:12.127Z,1.20
2019-02-11T15:21:14.233Z,1.00
2019-02-11T15:26:16.262Z,0.90
2019-02-11T15:31:18.329Z,0.80
2019-02-11T15:36:20.511Z,0.50
2019-02-11T15:41:22.607Z,0.67
2019-02-11T15:46:24.664Z,1.03
2019-02-11T15:51:26.791Z,0.70
2019-02-11T15:56:28.881Z,1.07
2019-02-11T16:01:31.049Z,1.23
2019-02-11T16:06:38.081Z,1.13
2019-02-11T16:11:37.085Z,1.40
2019-02-11T16:16:39.171Z,1.17
2019-02-11T16:21:41.284Z,1.83
2019-02-11T16:26:43.604Z,1.60
2019-02-11T16:31:45.724Z,1.93
2019-02-11T16:36:50.821Z,1.90
2019-02-11T16:41:52.990Z,2.10
2019-02-11T16:46:55.243Z,2.30
2019-02-11T16:51:59.730Z,2.40
2019-02-11T16:57:02.809Z,2.10
2019-02-11T17:02:04.905Z,2.37
2019-02-11T17:07:06.988Z,2.07
2019-02-11T17:12:09.078Z,2.27
2019-02-11T17:17:11.191Z,2.30
2019-02-11T17:22:13.327Z,2.40
2019-02-11T17:27:15.404Z,3.07
2019-02-11T17:32:17.478Z,4.13
2019-02-11T17:37:19.601Z,2.63
2019-02-11T17:42:21.709Z,2.80
2019-02-11T17:47:26.512Z,3.27
2019-02-11T17:52:28.621Z,2.70
2019-02-11T17:57:30.694Z,2.77
2019-02-11T18:02:32.856Z,3.20
2019-02-11T18:07:38.192Z,2.97
2019-02-11T18:12:40.422Z,2.97
2019-02-11T18:17:42.613Z,3.63
2019-02-11T18:22:44.729Z,4.17
2019-02-11T18:27:47.011Z,6.23
2019-02-11T18:32:49.177Z,5.80
2019-02-11T18:37:51.282Z,4.30
2019-02-11T18:42:53.352Z,3.10
2019-02-11T18:47:55.459Z,4.57
2019-02-11T18:52:57.680Z,3.33
2019-02-11T18:57:59.782Z,3.50
2019-02-11T19:03:01.800Z,3.93
2019-02-11T19:08:03.907Z,3.27
2019-02-11T19:13:06.058Z,2.93
2019-02-11T19:18:08.145Z,2.90
2019-02-11T19:23:10.238Z,3.27
2019-02-11T19:28:12.381Z,2.67
2019-02-11T19:33:14.432Z,2.97
2019-02-11T19:38:16.463Z,3.10
2019-02-11T19:43:18.617Z,3.00
2019-02-11T19:48:20.823Z,3.20
2019-02-11T19:53:22.911Z,3.17
2019-02-11T19:58:25.013Z,2.83
2019-02-11T20:03:27.121Z,3.43
2019-02-11T20:08:29.167Z,2.50
2019-02-11T20:13:31.212Z,2.70
2019-02-11T20:18:33.293Z,2.90
2019-02-11T20:23:35.370Z,2.53
2019-02-11T20:28:37.418Z,2.50
2019-02-11T20:33:42.691Z,3.10
2019-02-11T20:38:46.710Z,3.13
2019-02-11T20:43:48.738Z,2.60
2019-02-11T20:48:51.085Z,3.03
2019-02-11T20:53:53.200Z,2.23
2019-02-11T20:58:55.275Z,2.63
2019-02-11T21:03:58.007Z,4.00
2019-02-11T21:09:00.092Z,2.30
2019-02-11T21:14:02.209Z,2.30
2019-02-11T21:19:04.301Z,2.63
2019-02-11T21:24:06.362Z,2.60
2019-02-11T21:29:08.453Z,2.23
2019-02-11T21:34:10.492Z,2.30
2019-02-11T21:39:12.668Z,2.20
2019-02-11T21:44:14.767Z,2.20
2019-02-11T21:49:17.042Z,2.20
2019-02-11T21:54:19.144Z,2.20
2019-02-11T21:59:21.211Z,2.40
2019-02-11T22:04:23.309Z,2.17
2019-02-11T22:09:25.401Z,2.03
2019-02-11T22:14:27.562Z,2.37
2019-02-11T22:19:29.791Z,1.83
2019-02-11T22:24:31.858Z,2.10
2019-02-11T22:29:33.930Z,2.30
2019-02-11T22:34:36.028Z,2.30
2019-02-11T22:39:38.073Z,2.57
2019-02-11T22:44:40.172Z,1.93
2019-02-11T22:49:42.304Z,2.20
2019-02-11T22:54:44.375Z,2.87
2019-02-11T22:59:46.437Z,2.87
2019-02-11T23:04:48.521Z,1.93
2019-02-11T23:09:50.588Z,1.57
2019-02-11T23:14:55.042Z,2.13
2019-02-11T23:19:57.209Z,2.30
2019-02-11T23:24:59.319Z,2.33
2019-02-11T23:30:01.333Z,2.10
2019-02-11T23:35:03.740Z,2.20
2019-02-11T23:40:05.949Z,1.80
2019-02-11T23:45:08.452Z,2.13
2019-02-11T23:50:10.610Z,1.90
2019-02-11T23:55:13.201Z,2.00
